createdAt,value
2022-10-13T00:02:30.006Z,11.20
2022-10-13T00:05:22.146Z,11.30
2022-10-13T00:08:19.393Z,11.30
2022-10-13T00:11:18.915Z,11.30
2022-10-13T00:14:11.045Z,11.20
2022-10-13T00:17:03.279Z,11.20
2022-10-13T00:19:55.435Z,11.20
2022-10-13T00:22:47.534Z,11.30
2022-10-13T00:25:44.546Z,11.30
2022-10-13T00:28:36.982Z,11.30
2022-10-13T00:31:31.025Z,11.20
2022-10-13T00:34:23.126Z,11.10
2022-10-13T00:37:15.243Z,11.10
2022-10-13T00:40:07.915Z,11.00
2022-10-13T00:43:00.097Z,11.00
2022-10-13T00:45:53.849Z,10.90
2022-10-13T00:48:47.301Z,10.80
2022-10-13T00:51:43.309Z,10.60
2022-10-13T00:54:35.492Z,10.30
2022-10-13T00:57:27.688Z,9.90
2022-10-13T01:00:19.910Z,9.80
2022-10-13T01:03:12.818Z,9.60
2022-10-13T01:06:07.196Z,9.40
2022-10-13T01:08:59.324Z,9.20
2022-10-13T01:12:06.630Z,9.20
2022-10-13T01:15:36.417Z,9.20
2022-10-13T01:18:31.520Z,9.30
2022-10-13T01:21:38.190Z,9.30
2022-10-13T01:24:47.602Z,9.30
2022-10-13T01:27:45.777Z,9.30
2022-10-13T01:30:45.937Z,9.20
2022-10-13T01:33:49.876Z,9.10
2022-10-13T01:36:50.578Z,9.10
2022-10-13T01:39:49.800Z,9.20
2022-10-13T01:43:01.960Z,9.30
2022-10-13T01:45:54.115Z,9.20
2022-10-13T01:48:46.391Z,9.10
2022-10-13T01:51:39.778Z,9.10
2022-10-13T01:54:33.284Z,9.00
2022-10-13T01:57:41.435Z,8.90
2022-10-13T02:00:43.862Z,8.70
2022-10-13T02:03:47.802Z,8.60
2022-10-13T02:06:47.987Z,8.80
2022-10-13T02:10:11.902Z,8.90
2022-10-13T02:13:06.541Z,9.00
2022-10-13T02:16:01.302Z,9.00
2022-10-13T02:18:54.572Z,9.10
2022-10-13T02:21:47.381Z,9.10
2022-10-13T02:24:39.658Z,9.20
2022-10-13T02:27:31.999Z,9.10
2022-10-13T02:30:27.091Z,9.10
2022-10-13T02:33:19.395Z,9.20
2022-10-13T02:36:11.521Z,9.00
2022-10-13T02:39:04.556Z,9.10
2022-10-13T02:41:56.803Z,8.80
2022-10-13T02:44:48.910Z,8.70
2022-10-13T02:47:41.074Z,8.60
2022-10-13T02:50:33.187Z,8.50
2022-10-13T02:53:25.362Z,8.60
2022-10-13T02:56:18.923Z,8.70
2022-10-13T02:59:12.110Z,8.70
2022-10-13T03:02:04.370Z,8.60
2022-10-13T03:04:56.782Z,8.60
2022-10-13T03:07:49.799Z,8.50
2022-10-13T03:10:41.992Z,8.40
2022-10-13T03:13:34.154Z,8.20
2022-10-13T03:16:26.253Z,8.20
2022-10-13T03:19:18.356Z,8.20
2022-10-13T03:22:10.577Z,8.40
2022-10-13T03:25:03.702Z,8.30
2022-10-13T03:27:56.283Z,8.40
2022-10-13T03:30:48.430Z,8.50
2022-10-13T03:33:41.073Z,8.40
2022-10-13T03:36:33.208Z,8.50
2022-10-13T03:39:25.467Z,8.50
2022-10-13T03:42:18.221Z,8.30
2022-10-13T03:45:10.992Z,8.10
2022-10-13T03:48:03.188Z,8.20
2022-10-13T03:50:55.788Z,8.10
2022-10-13T03:53:48.998Z,7.90
2022-10-13T03:56:42.327Z,7.70
2022-10-13T03:59:36.931Z,7.80
2022-10-13T04:02:29.554Z,8.10
2022-10-13T04:05:21.726Z,8.30
2022-10-13T04:08:14.139Z,8.40
2022-10-13T04:11:08.625Z,8.40
2022-10-13T04:14:00.877Z,8.20
2022-10-13T04:16:53.069Z,8.20
2022-10-13T04:19:45.218Z,8.20
2022-10-13T04:22:37.604Z,8.10
2022-10-13T04:25:29.738Z,8.10
2022-10-13T04:28:21.902Z,8.00
2022-10-13T04:31:14.407Z,7.90
2022-10-13T04:34:07.767Z,7.80
2022-10-13T04:36:59.878Z,7.80
2022-10-13T04:39:52.115Z,7.70
2022-10-13T04:42:44.307Z,7.70
2022-10-13T04:45:36.465Z,7.60
2022-10-13T04:48:29.415Z,7.60
2022-10-13T04:51:23.938Z,7.60
2022-10-13T04:54:16.064Z,7.60
2022-10-13T04:57:08.324Z,7.60
2022-10-13T05:00:00.532Z,7.60
2022-10-13T05:02:52.685Z,7.80
2022-10-13T05:05:44.849Z,7.90
2022-10-13T05:08:37.461Z,8.00
2022-10-13T05:11:30.084Z,8.10
2022-10-13T05:14:22.979Z,8.10
2022-10-13T05:17:15.139Z,8.10
2022-10-13T05:20:07.850Z,8.10
2022-10-13T05:23:00.181Z,8.10
2022-10-13T05:25:52.288Z,7.90
2022-10-13T05:28:44.937Z,7.90
2022-10-13T05:31:37.188Z,7.80
2022-10-13T05:34:29.466Z,7.80
2022-10-13T05:37:22.614Z,7.80
2022-10-13T05:40:15.423Z,8.10
2022-10-13T05:43:07.566Z,8.30
2022-10-13T05:46:00.792Z,8.10
2022-10-13T05:48:53.505Z,8.10
2022-10-13T05:51:53.512Z,8.10
2022-10-13T05:54:49.900Z,8.20
2022-10-13T05:57:47.295Z,8.30
2022-10-13T06:00:42.103Z,8.30
2022-10-13T06:03:35.578Z,8.50
2022-10-13T06:06:31.288Z,8.50
2022-10-13T06:09:23.807Z,8.50
2022-10-13T06:12:15.972Z,8.60
2022-10-13T06:15:08.800Z,8.80
2022-10-13T06:18:01.238Z,9.30
2022-10-13T06:20:53.379Z,10.10
2022-10-13T06:23:45.669Z,11.70
2022-10-13T06:26:37.764Z,13.50
2022-10-13T06:29:29.918Z,15.00
2022-10-13T06:32:22.562Z,16.30
2022-10-13T06:35:15.103Z,17.20
2022-10-13T06:38:07.296Z,17.60
2022-10-13T06:41:03.915Z,18.40
2022-10-13T06:43:56.121Z,18.80
2022-10-13T06:46:48.219Z,19.10
2022-10-13T06:49:40.371Z,19.50
2022-10-13T06:52:32.478Z,19.80
2022-10-13T06:55:24.654Z,20.00
2022-10-13T06:58:16.862Z,20.10
2022-10-13T07:01:13.138Z,20.20
2022-10-13T07:04:05.683Z,20.30
2022-10-13T07:06:57.923Z,20.30
2022-10-13T07:09:50.601Z,20.30
2022-10-13T07:12:42.769Z,20.40
2022-10-13T07:15:38.294Z,20.30
2022-10-13T07:18:30.751Z,20.00
2022-10-13T07:21:22.997Z,20.00
2022-10-13T07:24:15.110Z,19.90
2022-10-13T07:27:08.042Z,19.60
2022-10-13T07:30:00.247Z,19.40
2022-10-13T07:32:52.768Z,19.60
2022-10-13T07:35:44.959Z,19.70
2022-10-13T07:38:37.277Z,19.80
2022-10-13T07:41:30.146Z,19.70
2022-10-13T07:44:22.788Z,19.60
2022-10-13T07:47:14.935Z,19.50
2022-10-13T07:50:07.437Z,19.50
2022-10-13T07:52:59.640Z,19.40
2022-10-13T07:55:51.769Z,18.90
2022-10-13T07:58:48.114Z,18.80
2022-10-13T08:01:41.068Z,18.50
2022-10-13T08:04:34.525Z,18.40
2022-10-13T08:07:26.642Z,18.40
2022-10-13T08:10:18.904Z,18.40
2022-10-13T08:13:12.104Z,18.20
2022-10-13T08:16:04.696Z,17.80
2022-10-13T08:19:00.006Z,17.70
2022-10-13T08:22:00.453Z,17.40
2022-10-13T08:24:52.982Z,17.40
2022-10-13T08:27:51.227Z,17.50
2022-10-13T08:30:44.481Z,17.60
2022-10-13T08:33:36.655Z,17.70
2022-10-13T08:36:28.749Z,17.60
2022-10-13T08:39:22.425Z,17.50
2022-10-13T08:42:21.095Z,17.50
2022-10-13T08:45:41.316Z,17.60
2022-10-13T08:48:42.723Z,17.60
2022-10-13T08:51:36.322Z,17.50
2022-10-13T08:54:28.505Z,17.40
2022-10-13T08:57:21.398Z,17.40
2022-10-13T09:00:14.243Z,17.40
2022-10-13T09:03:18.937Z,17.50
2022-10-13T09:06:15.459Z,17.60
2022-10-13T09:09:10.648Z,17.70
2022-10-13T09:12:02.835Z,17.60
2022-10-13T09:15:09.909Z,17.60
2022-10-13T09:18:13.091Z,17.70
2022-10-13T09:21:21.834Z,17.80
2022-10-13T09:24:17.567Z,17.70
2022-10-13T09:27:17.066Z,17.70
2022-10-13T09:30:35.242Z,17.50
2022-10-13T09:33:27.653Z,17.40
2022-10-13T09:36:19.772Z,17.30
2022-10-13T09:39:15.764Z,17.30
2022-10-13T09:42:25.486Z,17.30
2022-10-13T09:45:21.479Z,17.30
2022-10-13T09:48:22.058Z,17.40
2022-10-13T09:51:32.618Z,17.20
2022-10-13T09:54:42.670Z,17.30
2022-10-13T09:57:45.235Z,17.20
2022-10-13T10:00:37.960Z,17.10
2022-10-13T10:03:34.542Z,17.30
2022-10-13T10:06:27.942Z,17.20
2022-10-13T10:09:33.383Z,17.30
2022-10-13T10:12:30.220Z,17.20
2022-10-13T10:15:30.345Z,17.10
2022-10-13T10:18:31.160Z,17.20
2022-10-13T10:21:43.898Z,17.30
2022-10-13T10:24:51.161Z,17.30
2022-10-13T10:28:02.998Z,17.30
2022-10-13T10:31:10.971Z,17.30
2022-10-13T10:34:18.303Z,17.40
2022-10-13T10:37:45.557Z,17.30
2022-10-13T10:40:49.390Z,17.30
2022-10-13T10:43:48.825Z,17.30
2022-10-13T10:46:45.914Z,17.30
2022-10-13T10:49:39.518Z,17.20
2022-10-13T10:52:55.024Z,17.30
2022-10-13T10:56:00.556Z,17.40
2022-10-13T10:59:17.066Z,17.30
2022-10-13T11:02:18.327Z,17.40
2022-10-13T11:05:11.106Z,17.50
2022-10-13T11:08:03.220Z,17.60
2022-10-13T11:11:29.291Z,17.70
2022-10-13T11:14:30.181Z,17.70
2022-10-13T11:17:30.364Z,17.70
2022-10-13T11:20:22.605Z,17.80
2022-10-13T11:23:14.660Z,17.70
2022-10-13T11:26:19.637Z,17.70
2022-10-13T11:29:36.520Z,17.70
2022-10-13T11:32:41.421Z,17.70
2022-10-13T11:35:33.548Z,17.60
2022-10-13T11:38:37.887Z,17.70
2022-10-13T11:41:40.075Z,17.80
2022-10-13T11:44:50.188Z,17.80
2022-10-13T11:48:19.361Z,17.80
2022-10-13T11:51:55.251Z,17.60
2022-10-13T11:55:01.053Z,17.70
2022-10-13T11:58:14.075Z,17.50
2022-10-13T12:01:12.360Z,17.60
2022-10-13T12:04:14.636Z,17.60
2022-10-13T12:07:09.342Z,17.80
2022-10-13T12:10:04.917Z,17.80
2022-10-13T12:12:58.400Z,17.80
2022-10-13T12:16:01.001Z,17.60
2022-10-13T12:18:53.138Z,17.50
2022-10-13T12:22:11.777Z,17.50
2022-10-13T12:25:06.503Z,17.60
2022-10-13T12:28:00.877Z,17.70
2022-10-13T12:30:56.544Z,17.80
2022-10-13T12:34:03.188Z,17.90
2022-10-13T12:37:20.106Z,17.90
2022-10-13T12:40:17.494Z,17.90
2022-10-13T12:43:16.513Z,17.90
2022-10-13T12:46:09.474Z,17.90
2022-10-13T12:49:23.793Z,17.80
2022-10-13T12:52:18.710Z,17.90
2022-10-13T12:55:18.011Z,18.00
2022-10-13T12:58:21.731Z,18.00
2022-10-13T13:01:13.856Z,18.10
2022-10-13T13:04:21.429Z,18.00
2022-10-13T13:07:52.211Z,18.00
2022-10-13T13:10:55.134Z,18.00
2022-10-13T13:13:47.412Z,18.10
2022-10-13T13:16:39.534Z,18.20
2022-10-13T13:19:33.247Z,18.20
2022-10-13T13:22:25.898Z,18.20
2022-10-13T13:25:18.341Z,18.20
2022-10-13T13:28:13.046Z,18.20
2022-10-13T13:31:05.357Z,18.20
2022-10-13T13:33:57.545Z,18.20
2022-10-13T13:36:50.595Z,18.30
2022-10-13T13:39:42.715Z,18.30
2022-10-13T13:42:34.851Z,18.40
2022-10-13T13:45:27.054Z,18.30
2022-10-13T13:48:19.173Z,18.30
2022-10-13T13:51:11.484Z,18.30
2022-10-13T13:54:04.371Z,18.30
2022-10-13T13:56:58.802Z,18.30
2022-10-13T13:59:51.369Z,18.30
2022-10-13T14:02:44.729Z,18.30
2022-10-13T14:05:40.006Z,18.30
2022-10-13T14:11:35.225Z,18.10
2022-10-13T14:14:27.563Z,18.10
2022-10-13T14:17:19.724Z,18.10
2022-10-13T14:20:12.047Z,18.00
2022-10-13T14:23:04.148Z,17.90
2022-10-13T14:25:56.277Z,17.80
2022-10-13T14:28:48.434Z,17.80
2022-10-13T14:31:40.836Z,17.90
2022-10-13T14:34:33.647Z,17.80
2022-10-13T14:37:30.375Z,17.70
2022-10-13T14:40:24.970Z,17.80
2022-10-13T14:43:17.098Z,17.70
2022-10-13T14:46:09.818Z,17.60
2022-10-13T14:49:02.018Z,17.60
2022-10-13T14:51:54.189Z,17.60
2022-10-13T14:54:46.437Z,17.60
2022-10-13T14:57:38.578Z,17.60
2022-10-13T15:00:30.678Z,17.70
2022-10-13T15:03:23.954Z,17.60
2022-10-13T15:06:21.314Z,17.50
2022-10-13T15:09:13.474Z,17.50
2022-10-13T15:12:05.970Z,17.40
2022-10-13T15:14:58.073Z,17.50
2022-10-13T15:17:50.238Z,17.40
2022-10-13T15:20:49.558Z,17.40
2022-10-13T15:23:41.857Z,17.30
2022-10-13T15:26:34.941Z,17.20
2022-10-13T15:29:27.120Z,17.20
2022-10-13T15:32:20.425Z,17.10
2022-10-13T15:35:12.921Z,17.00
2022-10-13T15:38:05.109Z,16.90
2022-10-13T15:41:01.167Z,16.80
2022-10-13T15:43:53.431Z,16.80
2022-10-13T15:47:06.647Z,16.70
2022-10-13T15:49:57.692Z,16.50
2022-10-13T15:52:49.901Z,16.40
2022-10-13T15:55:42.061Z,16.30
2022-10-13T15:58:35.922Z,16.30
2022-10-13T16:01:28.082Z,16.20
2022-10-13T16:04:20.215Z,16.00
2022-10-13T16:07:12.323Z,15.80
2022-10-13T16:10:05.021Z,15.70
2022-10-13T16:12:57.164Z,15.60
2022-10-13T16:15:59.722Z,15.50
2022-10-13T16:18:52.247Z,15.50
2022-10-13T16:21:46.760Z,15.50
2022-10-13T16:24:38.907Z,15.40
2022-10-13T16:27:31.028Z,15.40
2022-10-13T16:30:23.238Z,15.30
2022-10-13T16:33:15.443Z,15.20
2022-10-13T16:36:10.180Z,15.10
2022-10-13T16:39:02.278Z,15.10
2022-10-13T16:41:54.749Z,14.90
2022-10-13T16:44:46.944Z,14.80
2022-10-13T16:47:39.106Z,14.60
2022-10-13T16:50:31.218Z,14.50
2022-10-13T16:53:23.730Z,14.50
2022-10-13T16:56:16.321Z,14.50
2022-10-13T16:59:08.457Z,14.40
2022-10-13T17:02:01.123Z,14.10
2022-10-13T17:04:53.341Z,13.70
2022-10-13T17:07:45.473Z,13.50
2022-10-13T17:10:37.589Z,13.10
2022-10-13T17:13:31.927Z,13.00
2022-10-13T17:16:24.542Z,12.80
2022-10-13T17:19:16.660Z,12.60
2022-10-13T17:22:08.789Z,12.60
2022-10-13T17:25:00.863Z,12.50
2022-10-13T17:27:52.986Z,12.70
2022-10-13T17:30:45.498Z,12.90
2022-10-13T17:33:38.846Z,13.10
2022-10-13T17:36:34.464Z,13.10
2022-10-13T17:39:26.732Z,13.20
2022-10-13T17:42:18.893Z,13.20
2022-10-13T17:45:11.085Z,13.30
2022-10-13T17:48:03.314Z,13.30
2022-10-13T17:50:55.437Z,13.30
2022-10-13T17:53:50.526Z,13.30
2022-10-13T17:56:42.793Z,13.30
2022-10-13T17:59:34.944Z,13.30
2022-10-13T18:02:27.109Z,13.30
2022-10-13T18:05:19.322Z,13.20
2022-10-13T18:08:11.446Z,13.10
2022-10-13T18:11:12.448Z,13.10
2022-10-13T18:14:05.361Z,13.10
2022-10-13T18:16:57.547Z,13.10
2022-10-13T18:19:51.002Z,13.20
2022-10-13T18:22:43.111Z,13.20
2022-10-13T18:25:36.454Z,13.10
2022-10-13T18:28:33.640Z,13.10
2022-10-13T18:31:28.080Z,13.10
2022-10-13T18:34:20.177Z,13.00
2022-10-13T18:37:12.298Z,12.90
2022-10-13T18:40:04.933Z,12.90
2022-10-13T18:42:57.070Z,12.80
2022-10-13T18:45:49.191Z,12.70
2022-10-13T18:48:41.527Z,12.70
2022-10-13T18:51:36.299Z,12.60
2022-10-13T18:54:30.573Z,12.50
2022-10-13T18:57:22.941Z,12.50
2022-10-13T19:00:15.548Z,12.50
2022-10-13T19:03:07.656Z,12.40
2022-10-13T19:05:59.886Z,12.20
2022-10-13T19:08:55.163Z,12.30
2022-10-13T19:11:47.556Z,12.20
2022-10-13T19:14:40.092Z,12.20
2022-10-13T19:17:32.235Z,12.10
2022-10-13T19:20:24.397Z,12.10
2022-10-13T19:23:17.268Z,12.10
2022-10-13T19:26:17.981Z,12.00
2022-10-13T19:29:12.541Z,12.00
2022-10-13T19:32:04.869Z,12.10
2022-10-13T19:34:57.068Z,12.00
2022-10-13T19:37:49.244Z,11.90
2022-10-13T19:40:43.025Z,11.90
2022-10-13T19:43:35.264Z,11.80
2022-10-13T19:46:27.463Z,11.90
2022-10-13T19:49:22.801Z,11.90
2022-10-13T19:52:14.921Z,11.80
2022-10-13T19:55:07.377Z,11.80
2022-10-13T19:57:59.491Z,11.80
2022-10-13T20:00:51.674Z,11.80
2022-10-13T20:03:43.839Z,11.70
2022-10-13T20:06:36.924Z,11.70
2022-10-13T20:09:29.046Z,11.70
2022-10-13T20:12:21.152Z,11.60
2022-10-13T20:15:13.370Z,11.60
2022-10-13T20:18:06.635Z,11.50
2022-10-13T20:21:03.482Z,11.50
2022-10-13T20:23:56.115Z,11.50
2022-10-13T20:26:48.244Z,11.60
2022-10-13T20:29:40.363Z,11.50
2022-10-13T20:32:32.471Z,11.30
2022-10-13T20:35:24.598Z,11.30
2022-10-13T20:38:18.237Z,11.30
2022-10-13T20:41:28.337Z,11.30
2022-10-13T20:44:20.506Z,10.70
2022-10-13T20:47:12.602Z,10.40
2022-10-13T20:50:08.454Z,10.20
2022-10-13T20:53:00.619Z,10.00
2022-10-13T20:55:59.718Z,10.00
2022-10-13T20:58:52.235Z,10.00
2022-10-13T21:01:44.392Z,9.90
2022-10-13T21:04:36.550Z,9.80
2022-10-13T21:07:28.730Z,9.80
2022-10-13T21:10:20.840Z,9.70
2022-10-13T21:13:14.446Z,9.60
2022-10-13T21:16:15.519Z,9.50
2022-10-13T21:19:07.767Z,9.30
2022-10-13T21:21:59.910Z,9.40
2022-10-13T21:24:52.065Z,9.40
2022-10-13T21:27:44.187Z,9.50
2022-10-13T21:30:36.714Z,9.60
2022-10-13T21:33:29.428Z,9.60
2022-10-13T21:36:30.444Z,9.60
2022-10-13T21:39:22.572Z,9.70
2022-10-13T21:42:15.129Z,9.60
2022-10-13T21:45:08.112Z,9.40
2022-10-13T21:48:00.271Z,9.50
2022-10-13T21:50:52.354Z,9.60
2022-10-13T21:53:51.830Z,9.80
2022-10-13T21:56:44.030Z,9.90
2022-10-13T21:59:36.168Z,10.10
2022-10-13T22:02:28.348Z,10.20
2022-10-13T22:05:20.598Z,10.20
2022-10-13T22:08:15.485Z,10.30
2022-10-13T22:11:10.282Z,10.30
2022-10-13T22:14:02.899Z,10.30
2022-10-13T22:16:55.017Z,10.30
2022-10-13T22:19:47.147Z,10.30
2022-10-13T22:22:39.350Z,10.30
2022-10-13T22:25:31.491Z,10.30
2022-10-13T22:28:23.988Z,10.30
2022-10-13T22:31:16.106Z,10.40
2022-10-13T22:34:08.442Z,10.40
2022-10-13T22:37:00.544Z,10.40
2022-10-13T22:39:52.660Z,10.40
2022-10-13T22:42:44.819Z,10.40
2022-10-13T22:45:36.910Z,10.40
2022-10-13T22:48:29.283Z,10.40
2022-10-13T22:51:23.033Z,10.40
2022-10-13T22:54:15.166Z,10.40
2022-10-13T22:57:07.334Z,10.30
2022-10-13T22:59:59.680Z,10.30
2022-10-13T23:02:51.853Z,10.10
2022-10-13T23:05:48.440Z,10.10
2022-10-13T23:08:40.779Z,10.10
2022-10-13T23:11:33.494Z,10.10
2022-10-13T23:14:25.617Z,10.00
2022-10-13T23:17:17.738Z,10.10
2022-10-13T23:20:10.003Z,10.10
2022-10-13T23:23:02.090Z,10.30
2022-10-13T23:25:54.248Z,10.10
2022-10-13T23:28:46.426Z,10.10
2022-10-13T23:31:38.969Z,10.10
2022-10-13T23:34:31.090Z,10.20
2022-10-13T23:37:23.578Z,10.20
2022-10-13T23:40:15.886Z,10.20
2022-10-13T23:43:08.082Z,10.20
2022-10-13T23:46:01.014Z,10.10
2022-10-13T23:48:53.167Z,10.10
2022-10-13T23:51:45.331Z,10.10
2022-10-13T23:54:37.520Z,10.00
2022-10-13T23:57:30.125Z,10.00
